Latest Weather Observations for Fortescue Dave Forrest

IDW60801

Issued at 8:33 pm WST Saturday 23 July 2016 (issued every 30 minutes, with the page automatically refreshed every 10 minutes)

About weather observations | Map of weather stations | Latest weather observations for WA | Other Formats
Station Details ID: 505056 Name: FORTESCUE DAVE FORREST Lat: -22.29 Lon: 119.43 Height: 474.6 m
Data from the previous 72 hours. | See also: Recent months for locations in Western Australia
Date/Time
WST
Temp
°C
App
Temp
°C
Dew
Point
°C
Rel
Hum
%
Delta-T
°C
Wind Press
QNH
hPa
Press
MSL
hPa
Rain since
9am
mm
Dir  Spd
km/h
Gust
km/h
Spd
kts
Gust
kts
23/08:30pm 15.8 12.5 9.5 66 3.3 SE 17 24 9 13 1020.0 1019.4 0.0
23/08:00pm 16.4 12.6 8.9 61 3.9 SE 19 30 10 16 1019.9 1019.2 0.0
23/07:30pm 17.3 13.0 7.1 51 5.2 SE 19 28 10 15 1019.6 1018.9 0.0
23/07:00pm 17.8 13.4 6.7 48 5.6 SE 19 28 10 15 1019.5 1018.8 0.0
23/06:30pm 18.0 14.0 6.5 47 5.8 SE 17 26 9 14 1019.2 1018.5 0.0
23/06:00pm 18.2 15.0 6.7 47 5.9 SE 13 22 7 12 1018.8 1018.1 0.0
23/05:30pm 18.7 15.0 6.5 45 6.2 SE 15 24 8 13 1018.7 1018.0 0.0
23/05:00pm 19.2 15.9 6.3 43 6.6 SE 13 19 7 10 1018.4 1017.7 0.0
23/04:30pm 19.7 15.9 5.7 40 7.1 SE 15 22 8 12 1018.1 1017.3 0.0
23/04:00pm 20.1 16.0 6.1 40 7.1 SE 17 24 9 13 1018.0 1017.2 0.0
23/03:30pm 20.2 17.0 6.9 42 6.9 SE 13 19 7 10 1018.2 1017.5 0.0
23/03:00pm 19.9 16.4 7.0 43 6.7 SE 15 22 8 12 1018.3 1017.6 0.0
23/02:30pm 19.9 16.4 7.0 43 6.7 SSE 15 20 8 11 1018.2 1017.5 0.0
23/02:00pm 19.8 16.7 7.2 44 6.6 SE 13 20 7 11 1018.0 1017.2 0.0
23/01:30pm 19.5 16.2 6.6 43 6.6 ESE 13 20 7 11 1018.3 1017.6 0.0
23/01:00pm 19.3 15.3 6.8 44 6.4 ESE 17 24 9 13 1018.6 1017.9 0.0
23/12:30pm 18.7 14.8 6.9 46 6.1 ESE 17 24 9 13 1019.1 1018.4 0.0
23/12:00pm 17.7 14.1 6.6 48 5.6 SE 15 22 8 12 1019.7 1019.0 0.0
23/11:30am 16.8 12.3 6.3 50 5.3 SE 19 26 10 14 1020.2 1019.5 0.0
23/11:00am 16.2 11.7 6.1 51 5.0 SE 19 24 10 13 1020.4 1019.7 0.0
23/10:30am 16.5 13.2 6.3 51 5.1 SSE 13 19 7 10 1021.2 1020.5 0.0
23/10:00am 16.3 12.6 6.4 52 4.9 SSE 15 22 8 12 1021.5 1020.8 0.0
23/09:30am 15.8 12.3 7.1 56 4.4 SE 15 20 8 11 1021.4 1020.7 0.0
23/09:00am 15.0 11.5 7.1 59 4.0 SE 15 20 8 11 1021.0 1020.3 0.0
23/08:30am 14.7 11.7 7.7 63 3.6 SE 13 19 7 10 1020.8 1020.1 0.0
23/08:00am 14.8 11.8 7.6 62 3.6 SSE 13 20 7 11 1020.7 1020.0 0.0
23/07:30am 14.8 11.3 7.1 60 3.9 SE 15 20 8 11 1020.0 1019.4 0.0
23/07:00am 14.8 11.2 6.9 59 3.9 SE 15 22 8 12 1020.0 1019.4 0.0
23/06:30am 14.7 11.2 7.0 60 3.9 SE 15 22 8 12 1019.8 1019.1 0.0
23/06:00am 14.7 11.6 7.3 61 3.7 SE 13 20 7 11 1019.8 1019.1 0.0
23/05:30am 14.7 11.7 7.5 62 3.6 SE 13 19 7 10 1019.5 1018.8 0.0
23/05:00am 14.8 11.7 7.4 61 3.7 SE 13 20 7 11 1019.3 1018.6 0.0
23/04:30am 14.8 11.8 7.6 62 3.7 SE 13 19 7 10 1019.2 1018.5 0.0
23/04:00am 14.8 11.8 7.8 63 3.6 SE 13 22 7 12 1019.5 1018.8 0.0
23/03:30am 14.7 12.2 8.0 64 3.4 SSE 11 19 6 10 1019.5 1018.8 0.0
23/03:00am 14.7 11.8 8.0 64 3.4 SE 13 20 7 11 1019.6 1018.9 0.0
23/02:30am 14.8 12.0 8.5 66 3.3 SSE 13 19 7 10 1019.7 1019.0 0.0
23/02:00am 15.0 11.8 8.5 65 3.4 SE 15 22 8 12 1019.5 1018.8 0.0
23/01:30am 15.0 12.2 8.7 66 3.3 SE 13 20 7 11 1019.6 1018.9 0.0
23/01:00am 15.0 11.6 9.1 68 3.1 SE 17 26 9 14 1019.7 1019.0 0.0
23/12:30am 15.3 12.7 9.4 68 3.1 SSE 13 19 7 10 1020.0 1019.4 0.0
23/12:00am 15.3 12.5 10.1 71 2.8 SSE 15 22 8 12 1019.8 1019.1 0.0
 
Date/Time
WST
Temp
°C
App
Temp
°C
Dew
Point
°C
Rel
Hum
%
Delta-T
°C
Wind Press
QNH
hPa
Press
MSL
hPa
Rain since
9am
mm
Dir  Spd
km/h
Gust
km/h
Spd
kts
Gust
kts
22/11:30pm 15.6 13.3 10.4 71 2.8 SSE 13 20 7 11 1020.2 1019.5 0.0
22/11:00pm 15.6 13.2 10.2 70 2.9 SSE 13 19 7 10 1020.2 1019.5 0.0
22/10:30pm 15.7 14.1 10.2 70 3.0 SSE 9 17 5 9 1020.4 1019.7 0.0
22/10:00pm 15.9 13.5 10.2 69 3.1 SSE 13 20 7 11 1020.2 1019.5 0.0
22/09:30pm 16.0 13.6 10.1 68 3.2 SSE 13 20 7 11 1020.2 1019.5 0.0
22/09:00pm 16.1 13.0 10.2 68 3.2 SE 17 24 9 13 1020.0 1019.4 0.0
22/08:30pm 16.2 13.9 10.5 69 3.1 SSE 13 20 7 11 1020.3 1019.6 0.0
22/08:00pm 16.1 13.7 10.0 67 3.3 SSE 13 20 7 11 1020.0 1019.4 0.0
22/07:30pm 16.8 14.6 9.2 61 4.0 SE 11 17 6 9 1019.7 1019.0 0.0
22/07:00pm 16.8 14.2 9.5 62 3.9 ESE 13 19 7 10 1019.3 1018.6 0.0
22/06:30pm 17.7 14.3 7.7 52 5.2 SE 15 22 8 12 1018.9 1018.2 0.0
22/06:00pm 18.4 14.5 6.9 47 5.9 SE 17 28 9 15 1018.7 1018.0 0.0
22/05:30pm 18.7 14.2 6.2 44 6.3 SSE 19 30 10 16 1018.7 1018.0 0.0
22/05:00pm 19.0 14.8 5.8 42 6.6 SSE 17 26 9 14 1018.5 1017.8 0.0
22/04:30pm 19.2 14.5 5.3 40 7.0 SSE 19 32 10 17 1018.3 1017.6 0.0
22/04:00pm 19.4 14.4 4.7 38 7.3 SSE 20 30 11 16 1018.1 1017.3 0.0
22/03:30pm 19.6 14.9 5.3 39 7.2 SSE 19 28 10 15 1018.4 1017.7 0.0
22/03:00pm 20.4 15.6 5.6 38 7.5 SE 20 30 11 16 1018.1 1017.3 0.0
22/02:30pm 20.7 16.5 5.9 38 7.6 SE 17 30 9 16 1018.0 1017.2 0.0
22/02:00pm 21.2 16.7 5.9 37 7.8 SSE 19 28 10 15 1018.4 1017.7 0.0
22/01:30pm 21.2 16.0 5.6 36 8.0 SSE 22 33 12 18 1018.7 1018.0 0.0
22/01:00pm 21.4 16.5 5.3 35 8.2 SE 20 30 11 16 1018.8 1018.1 0.0
22/12:30pm 21.8 16.3 6.1 36 8.1 SE 24 33 13 18 1018.9 1018.2 0.0
22/12:00pm 20.7 15.7 6.3 39 7.4 SSE 22 33 12 18 1019.5 1018.8 0.0
22/11:30am 18.9 14.2 6.1 43 6.5 SE 20 32 11 17 1019.9 1019.2 0.0
22/11:00am 18.4 13.8 6.3 45 6.1 SE 20 32 11 17 1020.3 1019.6 0.0
22/10:30am 17.7 13.0 5.9 46 5.9 SE 20 32 11 17 1020.5 1019.8 0.0
22/10:00am 17.0 13.0 6.5 50 5.3 SE 17 28 9 15 1020.5 1019.8 0.0
22/09:30am 16.4 11.7 6.2 51 5.1 SE 20 32 11 17 1020.5 1019.8 0.0
22/09:00am 16.5 11.8 6.1 50 5.2 SE 20 32 11 17 1020.6 1019.9 0.0
22/08:30am 16.3 12.5 5.9 50 5.2 SE 15 24 8 13 1020.3 1019.6 0.0
22/08:00am 15.9 11.8 6.1 52 4.9 SE 17 28 9 15 1019.9 1019.2 0.0
22/07:30am 15.8 11.7 6.3 53 4.7 SE 17 24 9 13 1019.7 1019.0 0.0
22/07:00am 15.7 12.0 6.4 54 4.6 SE 15 20 8 11 1019.4 1018.7 0.0
22/06:30am 15.7 12.5 7.0 56 4.4 SE 13 19 7 10 1019.3 1018.6 0.0
22/06:00am 15.9 12.8 7.1 56 4.5 SE 13 20 7 11 1019.0 1018.3 0.0
22/05:30am 16.2 13.0 6.9 54 4.7 SE 13 22 7 12 1018.6 1017.9 0.0
22/05:00am 16.4 13.3 7.1 54 4.7 SE 13 19 7 10 1018.5 1017.8 0.0
22/04:30am 16.4 13.7 7.3 55 4.6 SE 11 15 6 8 1018.5 1017.8 0.0
22/04:00am 16.3 14.0 7.3 55 4.6 SE 9 15 5 8 1018.3 1017.6 0.0
22/03:30am 16.3 13.6 7.3 55 4.6 SE 11 15 6 8 1018.1 1017.3 0.0
22/03:00am 16.2 13.8 7.2 55 4.6 SE 9 15 5 8 1018.1 1017.3 0.0
22/02:30am 16.3 14.0 7.3 55 4.6 SE 9 13 5 7 1018.1 1017.3 0.0
22/02:00am 16.5 13.7 6.9 53 4.9 SE 11 15 6 8 1018.3 1017.6 0.0
22/01:30am 16.6 14.2 7.0 53 4.9 SE 9 13 5 7 1018.7 1018.0 0.0
22/01:00am 16.7 13.9 7.1 53 4.9 SE 11 15 6 8 1019.0 1018.3 0.0
22/12:30am 16.6 14.3 7.3 54 4.8 SE 9 13 5 7 1019.0 1018.3 0.0
22/12:00am 17.0 14.6 6.8 51 5.2 SE 9 13 5 7 1018.9 1018.2 0.0
 
Date/Time
WST
Temp
°C
App
Temp
°C
Dew
Point
°C
Rel
Hum
%
Delta-T
°C
Wind Press
QNH
hPa
Press
MSL
hPa
Rain since
9am
mm
Dir  Spd
km/h
Gust
km/h
Spd
kts
Gust
kts
21/11:30pm 17.2 14.8 7.0 51 5.2 SE 9 15 5 8 1019.0 1018.3 0.0
21/11:00pm 17.1 14.7 6.9 51 5.2 SE 9 15 5 8 1019.1 1018.4 0.0
21/10:30pm 16.7 14.2 6.5 51 5.1 SE 9 15 5 8 1019.1 1018.4 0.0
21/10:00pm 17.2 14.6 6.1 48 5.6 SSE 9 13 5 7 1019.1 1018.4 0.0
21/09:30pm 18.0 15.4 5.9 45 6.1 SSE 9 13 5 7 1019.0 1018.3 0.0
21/09:00pm 19.0 15.6 5.8 42 6.6 S 13 20 7 11 1018.8 1018.1 0.0
21/08:30pm 19.6 16.2 6.0 41 6.9 S 13 19 7 10 1018.6 1017.9 0.0
21/08:00pm 20.5 17.1 5.7 38 7.5 S 13 20 7 11 1018.1 1017.3 0.0
21/07:30pm 21.3 17.8 5.6 36 8.0 S 13 22 7 12 1017.5 1016.8 0.0
21/07:00pm 21.9 20.8 9.8 46 6.7 WSW 6 7 3 4 1016.9 1016.2 0.0
21/06:30pm 23.0 22.3 10.1 44 7.2 W 4 7 2 4 1016.5 1015.8 0.0
21/06:00pm 24.3 22.6 9.8 40 8.1 W 9 11 5 6 1016.0 1015.2 0.0
21/05:30pm 25.4 22.8 9.3 36 9.0 W 13 19 7 10 1015.4 1014.7 0.0
21/05:00pm 26.2 23.5 9.1 34 9.5 W 13 20 7 11 1015.2 1014.5 0.0
21/04:30pm 26.6 23.4 9.9 35 9.5 WNW 17 24 9 13 1014.8 1014.1 0.0
21/04:00pm 26.5 23.0 10.2 36 9.3 WNW 19 26 10 14 1014.8 1014.1 0.0
21/03:30pm 26.7 23.1 10.4 36 9.3 W 20 30 11 16 1014.7 1014.0 0.0
21/03:00pm 27.0 24.2 11.5 38 9.0 W 17 32 9 17 1014.7 1014.0 0.0
21/02:30pm 26.5 23.3 11.8 40 8.6 W 20 30 11 16 1015.0 1014.3 0.0
21/02:00pm 26.5 23.5 11.8 40 8.6 W 19 26 10 14 1015.3 1014.6 0.0
21/01:30pm 26.7 23.5 12.0 40 8.6 NW 20 33 11 18 1015.5 1014.8 0.0
21/01:00pm 26.2 22.6 11.9 41 8.4 WNW 22 37 12 20 1016.0 1015.2 0.0
21/12:30pm 25.8 21.8 11.9 42 8.1 NW 24 37 13 20 1016.4 1015.7 0.0
21/12:00pm 25.5 22.3 12.0 43 7.9 WNW 20 30 11 16 1016.9 1016.2 0.0
21/11:30am 24.9 22.1 12.5 46 7.3 NW 19 30 10 16 1017.1 1016.4 0.0
21/11:00am 24.1 21.7 12.7 49 6.7 WNW 17 26 9 14 1017.4 1016.7 0.0
21/10:30am 23.4 21.5 11.8 48 6.7 WNW 13 22 7 12 1017.5 1016.8 0.0
21/10:00am 22.6 21.1 13.1 55 5.6 WNW 13 19 7 10 1017.6 1016.9 0.0
21/09:30am 21.4 19.4 12.8 58 5.0 WNW 15 22 8 12 1017.6 1016.9 0.0
21/09:00am 20.7 19.1 12.7 60 4.6 WNW 13 19 7 10 1017.5 1016.8 0.0
21/08:30am 20.1 19.0 12.1 60 4.6 WNW 9 15 5 8 1017.3 1016.6 0.0
21/08:00am 18.3 17.8 12.5 69 3.3 NW 7 13 4 7 1017.0 1016.3 0.0
21/07:30am 16.0 16.1 12.7 81 1.9 NW 4 7 2 4 1016.8 1016.1 0.0
21/07:00am 14.9 13.5 12.2 84 1.5 N 11 13 6 7 1016.3 1015.5 0.0
21/06:30am 14.7 14.1 11.7 82 1.7 NNE 6 9 3 5 1016.1 1015.3 0.0
21/06:00am 15.5 14.7 11.7 78 2.1 WNW 7 11 4 6 1015.7 1014.9 0.0
21/05:30am 15.7 14.6 11.9 78 2.1 WNW 9 11 5 6 1015.4 1014.7 0.0
21/05:00am 15.9 14.5 12.3 79 2.0 WNW 11 13 6 7 1015.3 1014.6 0.0
21/04:30am 16.3 14.6 12.5 78 2.1 WNW 13 15 7 8 1015.4 1014.7 0.0
21/04:00am 16.4 14.8 12.8 79 2.0 WNW 13 17 7 9 1015.3 1014.6 0.0
21/03:30am 16.3 15.2 13.0 81 1.9 WNW 11 15 6 8 1015.3 1014.6 0.0
21/03:00am 16.4 15.4 13.5 83 1.7 NW 11 15 6 8 1015.2 1014.5 0.0
21/02:30am 16.6 15.8 13.9 84 1.6 WNW 11 15 6 8 1015.3 1014.6 0.0
21/02:00am 16.4 15.5 13.7 84 1.6 WNW 11 13 6 7 1015.4 1014.7 0.0
21/01:30am 17.0 15.8 13.9 82 1.8 WNW 13 17 7 9 1015.4 1014.7 0.0
21/01:00am 17.7 16.5 14.0 79 2.2 WNW 13 19 7 10 1015.4 1014.7 0.0
21/12:30am 17.8 16.6 14.1 79 2.2 WNW 13 17 7 9 1015.4 1014.7 0.0
21/12:00am 18.3 16.7 14.0 76 2.5 NW 15 20 8 11 1015.5 1014.8 0.0
 
Date/Time
WST
Temp
°C
App
Temp
°C
Dew
Point
°C
Rel
Hum
%
Delta-T
°C
Wind Press
QNH
hPa
Press
MSL
hPa
Rain since
9am
mm
Dir  Spd
km/h
Gust
km/h
Spd
kts
Gust
kts
20/11:30pm 18.8 17.3 14.1 74 2.8 NW 15 19 8 10 1015.7 1014.9 0.0
20/11:00pm 19.2 17.6 13.8 71 3.2 NW 15 20 8 11 1015.9 1015.1 0.0
20/10:30pm 19.1 18.0 13.1 68 3.5 NW 11 15 6 8 1016.0 1015.2 0.0
20/10:00pm 19.7 18.1 12.9 65 3.9 NW 13 17 7 9 1016.0 1015.2 0.0
20/09:30pm 19.9 18.7 12.7 63 4.1 NW 11 15 6 8 1016.0 1015.2 0.0
20/09:00pm 20.3 18.7 12.8 62 4.3 NW 13 17 7 9 1015.9 1015.1 0.0

Other Formats:

Comma delimited format used in spreadsheet applications
http://www.bom.gov.au/fwo/IDW60801/IDW60801.99736.axf

JavaScript Object Notation format (JSON) in row-major order
http://www.bom.gov.au/fwo/IDW60801/IDW60801.99736.json